Time;durP1;ratioP1;P1;durP2;ratioP2;P2;SDS_P1;SDS_P2;PMS_P1;PMS_P2;Temp;Humidity;BMP_temperature;BMP_pressure;BME280_temperature;BME280_humidity;BME280_pressure;Samples;Min_cycle;Max_cycle;Signal;HPM_P1;HPM_P2
2021/06/13 00:00:17;;;;;;;9.45;2.60;;;11.50;99.90;;;10.21;83.02;101488.56;5035376;28;20069;-76
2021/06/13 00:02:45;;;;;;;13.15;2.22;;;11.50;99.90;;;10.19;82.93;101493.88;5000334;28;20132;-76
2021/06/13 00:05:18;;;;;;;9.52;2.53;;;11.50;99.90;;;10.25;81.55;101492.81;5004346;28;20086;-75
2021/06/13 00:07:44;;;;;;;10.48;2.05;;;11.50;99.90;;;10.12;82.51;101486.25;4992053;28;20539;-75
2021/06/13 00:10:13;;;;;;;8.73;2.00;;;11.40;99.90;;;10.02;82.80;101494.44;5012225;28;20576;-75
2021/06/13 00:12:40;;;;;;;8.43;2.03;;;11.40;99.90;;;10.06;82.30;101498.69;5011963;28;20081;-75
2021/06/13 00:15:12;;;;;;;9.90;2.10;;;11.30;99.90;;;9.91;82.88;101507.06;5007071;28;20055;-75
2021/06/13 00:17:38;;;;;;;9.57;2.60;;;11.20;99.90;;;9.84;82.68;101503.75;4994080;28;20111;-75
2021/06/13 00:20:20;;;;;;;15.50;2.28;;;11.10;99.90;;;9.76;83.58;101515.41;4999355;28;20080;-76
2021/06/13 00:22:47;;;;;;;12.55;2.40;;;11.00;99.90;;;9.70;83.26;101510.34;4986798;28;20083;-75
2021/06/13 00:25:13;;;;;;;8.65;1.90;;;11.00;99.90;;;9.64;83.67;101501.75;4991263;28;20106;-76
2021/06/13 00:27:40;;;;;;;11.02;2.28;;;11.00;99.90;;;9.58;83.60;101509.81;4977591;28;20066;-76
2021/06/13 00:30:10;;;;;;;15.07;3.03;;;10.90;99.90;;;9.61;83.26;101509.75;4976478;28;20072;-76
2021/06/13 00:32:37;;;;;;;13.07;2.90;;;10.90;99.90;;;9.60;83.43;101509.78;4979061;28;20646;-76
2021/06/13 00:35:05;;;;;;;12.88;2.03;;;10.90;99.90;;;9.56;84.00;101514.25;4985147;28;20669;-76
2021/06/13 00:37:34;;;;;;;4.22;1.50;;;10.90;99.90;;;9.58;83.57;101512.44;5000825;28;20111;-76
2021/06/13 00:40:00;;;;;;;7.63;2.08;;;10.90;99.90;;;9.54;83.46;101512.59;4992483;28;20469;-75
2021/06/13 00:42:26;;;;;;;6.25;2.00;;;10.90;99.90;;;9.54;83.35;101515.22;4966683;28;20134;-75
2021/06/13 00:44:52;;;;;;;9.57;2.55;;;10.80;99.90;;;9.41;84.52;101509.44;4984545;28;20086;-75
2021/06/13 00:47:17;;;;;;;5.93;1.90;;;10.70;99.90;;;9.30;85.13;101506.28;4977090;28;20060;-75
2021/06/13 00:49:43;;;;;;;11.95;1.90;;;10.60;99.90;;;9.23;85.44;101516.97;4986807;28;20069;-76
2021/06/13 00:52:09;;;;;;;12.30;2.42;;;10.50;99.90;;;9.07;86.10;101515.69;4983259;28;20074;-76
2021/06/13 00:54:41;;;;;;;11.93;2.38;;;10.50;99.90;;;9.04;86.11;101510.50;5004081;28;20061;-75
2021/06/13 00:57:06;;;;;;;16.05;2.25;;;10.40;99.90;;;9.10;86.24;101509.47;4985281;28;20125;-76
2021/06/13 00:59:32;;;;;;;10.82;2.60;;;10.50;99.90;;;9.19;85.83;101515.31;5003139;28;20097;-76
2021/06/13 01:01:58;;;;;;;17.40;2.22;;;10.50;99.90;;;9.09;86.73;101511.22;5020251;28;20078;-76
2021/06/13 01:04:24;;;;;;;11.00;2.47;;;10.40;99.90;;;9.09;86.38;101505.97;5004481;28;20094;-75
2021/06/13 01:07:21;;;;;;;13.57;2.40;;;10.40;99.90;;;9.02;86.71;101509.69;5003092;28;20552;-75
2021/06/13 01:09:58;;;;;;;17.00;3.60;;;10.40;99.90;;;9.22;85.96;101517.00;5015862;28;20577;-75
2021/06/13 01:13:06;;;;;;;9.27;1.88;;;10.50;99.90;;;9.23;86.61;101521.38;5013844;28;20100;-75
2021/06/13 01:15:44;;;;;;;9.23;1.65;;;10.50;99.90;;;9.19;86.23;101525.84;4951298;28;20501;-76
2021/06/13 01:18:26;;;;;;;9.50;2.65;;;10.50;99.90;;;9.16;86.31;101523.31;4969929;28;20059;-75
2021/06/13 01:21:05;;;;;;;10.75;1.65;;;10.40;99.90;;;9.15;86.72;101523.34;4990988;28;20124;-76
2021/06/13 01:23:53;;;;;;;10.05;2.45;;;10.50;99.90;;;9.14;87.02;101532.16;5004436;28;20105;-76
2021/06/13 01:26:51;;;;;;;10.48;1.83;;;10.40;99.90;;;9.04;87.35;101532.38;5011164;28;20053;-75
2021/06/13 01:29:40;;;;;;;11.40;1.92;;;10.50;99.90;;;9.13;86.90;101533.88;5003811;28;20172;-75
2021/06/13 01:32:15;;;;;;;12.82;2.15;;;10.40;99.90;;;9.07;87.37;101527.94;5002834;28;20521;-75
2021/06/13 01:34:50;;;;;;;13.82;2.50;;;10.40;99.90;;;9.02;86.97;101518.41;5010934;28;20088;-76
2021/06/13 01:37:21;;;;;;;10.13;2.17;;;10.30;99.90;;;8.91;87.81;101531.00;5002008;28;20062;-76
2021/06/13 01:39:52;;;;;;;6.18;1.75;;;10.30;99.90;;;8.90;87.87;101536.28;4973717;28;20146;-75
2021/06/13 01:42:26;;;;;;;9.73;2.38;;;10.30;99.90;;;8.99;88.11;101534.28;4999368;28;20055;-76
2021/06/13 01:44:58;;;;;;;12.00;2.42;;;10.30;99.90;;;9.02;87.69;101528.06;4985482;28;20670;-76
2021/06/13 01:47:26;;;;;;;9.77;2.00;;;10.40;99.90;;;9.08;87.97;101527.91;4989937;28;20154;-76
2021/06/13 01:49:54;;;;;;;9.77;1.90;;;10.40;99.90;;;9.00;88.06;101524.63;4967226;28;20068;-76
2021/06/13 01:52:22;;;;;;;6.88;1.95;;;10.30;99.90;;;8.91;88.20;101525.72;4992072;28;20073;-75
2021/06/13 01:54:53;;;;;;;10.65;2.15;;;10.20;99.90;;;8.89;88.72;101532.78;4991802;28;20059;-76
2021/06/13 01:57:19;;;;;;;9.82;1.90;;;10.30;99.90;;;8.90;88.77;101531.91;4982062;28;20457;-76
2021/06/13 01:59:46;;;;;;;8.77;2.50;;;10.40;99.90;;;9.02;88.21;101535.94;4952736;28;20448;-75
2021/06/13 02:02:14;;;;;;;11.70;2.33;;;10.30;99.90;;;8.97;88.78;101529.97;4983415;28;20059;-76
2021/06/13 02:04:45;;;;;;;17.48;2.28;;;10.40;99.90;;;9.04;88.17;101531.53;5009605;28;20094;-75
2021/06/13 02:07:13;;;;;;;16.25;2.05;;;10.30;99.90;;;8.94;88.08;101530.03;5011579;28;20756;-75
2021/06/13 02:09:40;;;;;;;8.65;1.83;;;10.30;99.90;;;8.93;88.69;101538.84;5036716;28;20141;-75
2021/06/13 02:12:08;;;;;;;9.73;1.77;;;10.30;99.90;;;8.95;88.41;101537.03;5000535;28;20051;-75
2021/06/13 02:14:37;;;;;;;14.25;1.98;;;10.30;99.90;;;8.97;88.72;101535.22;4999894;28;20457;-75
2021/06/13 02:17:06;;;;;;;16.63;2.28;;;10.40;99.90;;;9.09;88.42;101542.75;4972117;28;20143;-76
2021/06/13 02:19:33;;;;;;;13.43;1.70;;;10.40;99.90;;;9.09;88.25;101540.13;4970602;28;20073;-76
2021/06/13 02:22:01;;;;;;;12.30;2.08;;;10.40;99.90;;;9.02;88.77;101543.84;5018620;28;20052;-76
2021/06/13 02:24:34;;;;;;;12.23;1.88;;;10.40;99.90;;;9.04;88.32;101547.28;4994928;28;20078;-76
2021/06/13 02:27:02;;;;;;;10.40;2.13;;;10.40;99.90;;;9.05;88.57;101551.66;5024795;28;20070;-76
2021/06/13 02:29:29;;;;;;;7.45;1.63;;;10.40;99.90;;;9.09;88.56;101549.78;5001794;28;20054;-76
2021/06/13 02:32:01;;;;;;;11.73;1.65;;;10.40;99.90;;;9.02;88.65;101551.72;4994593;28;20545;-76
2021/06/13 02:34:30;;;;;;;10.65;1.63;;;10.40;99.90;;;9.04;88.53;101557.78;5017775;28;20064;-76
2021/06/13 02:37:02;;;;;;;7.13;1.90;;;10.40;99.90;;;9.07;88.47;101562.97;5027176;28;20071;-76
2021/06/13 02:39:28;;;;;;;19.80;2.33;;;10.40;99.90;;;9.05;88.51;101556.91;5018262;28;20515;-76
2021/06/13 02:41:54;;;;;;;12.25;1.65;;;10.40;99.90;;;9.11;88.24;101564.59;5019218;28;20998;-76
2021/06/13 02:44:20;;;;;;;22.65;2.45;;;10.40;99.90;;;9.02;88.65;101563.06;5013024;28;20088;-75
2021/06/13 02:46:47;;;;;;;14.98;1.83;;;10.40;99.90;;;8.98;88.78;101563.19;4980044;28;20071;-75
2021/06/13 02:49:13;;;;;;;13.73;1.35;;;10.30;99.90;;;8.96;89.41;101571.16;5012262;28;20059;-76
2021/06/13 02:52:16;;;;;;;10.65;1.50;;;10.30;99.90;;;8.96;88.85;101565.91;4995136;28;20410;-76
2021/06/13 02:54:44;;;;;;;4.95;1.35;;;10.30;99.90;;;9.02;89.47;101572.72;4993693;28;20446;-76
2021/06/13 02:57:27;;;;;;;13.68;1.52;;;10.30;99.90;;;9.04;88.85;101573.56;5021723;28;20127;-75
2021/06/13 03:00:05;;;;;;;7.38;1.40;;;10.40;99.90;;;9.06;89.13;101577.00;5011841;28;20075;-75
2021/06/13 03:02:32;;;;;;;14.38;2.05;;;10.40;99.90;;;9.06;88.61;101574.38;5013013;28;20606;-76
2021/06/13 03:05:01;;;;;;;10.73;1.88;;;10.40;99.90;;;8.97;89.81;101587.75;5017381;28;20080;-75
2021/06/13 03:07:28;;;;;;;11.77;1.58;;;10.40;99.90;;;9.13;88.83;101577.69;5011684;28;22365;-75
2021/06/13 03:09:54;;;;;;;10.13;2.25;;;10.40;99.90;;;9.07;89.39;101589.25;5000522;28;20068;-76
2021/06/13 03:12:21;;;;;;;11.98;1.55;;;10.40;99.90;;;9.07;89.41;101588.38;5013924;28;20108;-76
2021/06/13 03:14:50;;;;;;;17.13;1.90;;;10.40;99.90;;;9.09;89.67;101592.66;5011680;28;20067;-76
2021/06/13 03:17:18;;;;;;;2.53;1.30;;;10.40;99.90;;;9.15;89.64;101603.03;5008332;28;20067;-76
2021/06/13 03:19:48;;;;;;;6.38;1.33;;;10.50;99.90;;;9.10;89.65;101598.81;5004431;28;20157;-76
2021/06/13 03:22:15;;;;;;;8.40;1.25;;;10.50;99.90;;;9.18;89.37;101595.06;5014015;28;20063;-76
2021/06/13 03:24:46;;;;;;;7.88;1.83;;;10.50;99.90;;;9.14;89.42;101606.56;5014843;28;20111;-76
2021/06/13 03:27:13;;;;;;;5.95;1.58;;;10.50;99.90;;;9.10;90.30;101602.28;5007999;28;20418;-75
2021/06/13 03:29:43;;;;;;;11.00;1.95;;;10.50;99.90;;;9.15;89.48;101607.41;5014538;28;20061;-76
2021/06/13 03:32:11;;;;;;;7.35;1.45;;;10.50;99.90;;;9.14;90.11;101617.06;5014221;28;20068;-76
2021/06/13 03:34:40;;;;;;;10.85;1.52;;;10.50;99.90;;;9.26;89.92;101621.13;4996841;28;20198;-76
2021/06/13 03:37:12;;;;;;;13.30;1.63;;;10.80;99.90;;;9.54;88.72;101621.22;4979394;28;20140;-76
2021/06/13 03:39:42;;;;;;;11.02;1.10;;;11.00;99.90;;;9.69;87.54;101619.94;5001527;28;20063;-75
2021/06/13 03:42:11;;;;;;;10.20;1.50;;;11.00;99.90;;;9.78;87.28;101626.69;5015308;28;20068;-76
2021/06/13 03:44:37;;;;;;;5.35;1.23;;;11.10;99.90;;;9.87;86.87;101636.97;5033461;28;20083;-76
2021/06/13 03:47:04;;;;;;;8.77;1.30;;;11.20;99.90;;;9.93;87.15;101636.78;5015418;28;20137;-76
2021/06/13 03:49:32;;;;;;;8.82;1.77;;;11.30;99.90;;;10.01;86.09;101628.66;5007464;28;20092;-76
2021/06/13 03:51:59;;;;;;;11.43;2.05;;;11.30;99.90;;;10.05;86.16;101643.47;5011999;28;20066;-75
2021/06/13 03:54:25;;;;;;;16.35;1.92;;;11.40;99.90;;;10.10;85.86;101640.69;4999002;28;20076;-76
2021/06/13 03:56:59;;;;;;;11.90;1.58;;;11.40;99.90;;;10.15;86.00;101638.78;4995868;28;20075;-76
2021/06/13 03:59:28;;;;;;;9.50;1.98;;;11.50;99.90;;;10.17;85.92;101647.47;5004044;28;20071;-76
2021/06/13 04:01:57;;;;;;;11.30;1.98;;;11.50;99.90;;;10.23;86.34;101645.53;5013688;28;20068;-76
2021/06/13 04:04:27;;;;;;;11.38;1.85;;;11.60;99.90;;;10.32;85.99;101644.41;5015445;28;20446;-75
2021/06/13 04:06:54;;;;;;;7.70;1.73;;;11.60;99.90;;;10.42;85.68;101659.03;4950629;28;20071;-76
2021/06/13 04:09:21;;;;;;;14.77;2.38;;;11.70;99.90;;;10.43;85.55;101659.88;4992886;28;20063;-76
2021/06/13 04:11:51;;;;;;;10.93;1.80;;;11.70;99.90;;;10.42;84.93;101663.44;4999248;28;20063;-76
2021/06/13 04:14:18;;;;;;;5.20;1.48;;;11.70;99.90;;;10.40;85.32;101665.25;5013140;28;20494;-76
2021/06/13 04:16:48;;;;;;;12.70;1.40;;;11.70;99.90;;;10.46;84.91;101670.31;4986233;28;20419;-75
2021/06/13 04:19:18;;;;;;;8.85;1.95;;;11.80;99.90;;;10.59;85.11;101665.53;5000993;28;20468;-76
2021/06/13 04:21:46;;;;;;;10.65;1.55;;;11.90;99.90;;;10.62;85.14;101657.53;4987014;28;20067;-75
2021/06/13 04:24:16;;;;;;;13.77;1.83;;;11.90;99.90;;;10.67;84.43;101672.28;4983433;28;20075;-76
2021/06/13 04:26:44;;;;;;;13.00;1.40;;;12.00;99.90;;;10.79;83.75;101671.03;4959298;28;20073;-76
2021/06/13 04:29:11;;;;;;;12.02;1.85;;;12.20;99.90;;;10.93;82.89;101664.44;4940129;28;20119;-76
2021/06/13 04:31:37;;;;;;;9.95;1.40;;;12.30;99.90;;;10.99;83.94;101664.22;4996663;28;20469;-76
2021/06/13 04:34:04;;;;;;;8.88;1.70;;;12.30;99.90;;;11.11;82.60;101668.25;4988335;28;20158;-76
2021/06/13 04:36:30;;;;;;;9.82;1.73;;;12.40;99.90;;;11.18;83.02;101664.47;4978349;28;20074;-76
2021/06/13 04:38:55;;;;;;;14.73;2.03;;;12.40;99.90;;;11.14;83.26;101663.72;4981027;28;20233;-76
2021/06/13 04:41:22;;;;;;;12.48;1.58;;;12.40;99.90;;;11.12;82.64;101667.31;4997211;28;20074;-76
2021/06/13 04:43:48;;;;;;;18.00;2.50;;;12.40;99.90;;;11.14;83.52;101674.25;5011375;28;20075;-76
2021/06/13 04:46:17;;;;;;;15.50;2.13;;;12.40;99.90;;;11.17;83.54;101676.81;5021142;28;20051;-76
2021/06/13 04:48:43;;;;;;;15.18;1.90;;;12.50;99.90;;;11.21;82.59;101678.44;5013824;28;20066;-75
2021/06/13 04:51:11;;;;;;;10.02;1.50;;;12.50;99.90;;;11.25;82.70;101669.50;4996554;28;20056;-76
2021/06/13 04:53:58;;;;;;;8.73;1.88;;;12.50;99.90;;;11.28;82.04;101676.44;5000181;28;20184;-76
2021/06/13 04:56:36;;;;;;;8.95;1.88;;;12.50;99.90;;;11.32;82.43;101677.19;5003164;28;20145;-76
2021/06/13 04:59:02;;;;;;;9.20;1.88;;;12.60;99.90;;;11.31;81.50;101683.38;5010605;28;20155;-76
2021/06/13 05:01:29;;;;;;;3.90;1.55;;;12.60;99.90;;;11.34;81.13;101675.34;5014680;28;20048;-76
2021/06/13 05:03:59;;;;;;;11.20;1.90;;;12.60;99.90;;;11.33;81.81;101678.91;5020447;28;20568;-76
2021/06/13 05:06:25;;;;;;;10.15;1.85;;;12.60;99.90;;;11.32;80.93;101672.78;5001996;28;20155;-75
2021/06/13 05:08:51;;;;;;;12.32;1.58;;;12.60;99.90;;;11.33;81.94;101669.22;5003499;28;20425;-76
2021/06/13 05:11:17;;;;;;;16.65;2.13;;;12.60;99.90;;;11.38;80.76;101676.97;5003044;28;20070;-75
2021/06/13 05:13:43;;;;;;;9.05;1.98;;;12.60;99.90;;;11.39;80.59;101669.00;5007351;28;20934;-76
2021/06/13 05:16:09;;;;;;;11.30;1.77;;;12.70;99.90;;;11.41;80.33;101676.88;5009393;28;20060;-76
2021/06/13 05:18:38;;;;;;;14.27;1.80;;;12.70;99.90;;;11.44;80.68;101682.88;5012285;28;20070;-76
2021/06/13 05:21:05;;;;;;;16.75;2.22;;;12.70;99.90;;;11.47;80.66;101680.16;4995290;28;20058;-76
2021/06/13 05:23:31;;;;;;;11.60;1.67;;;12.70;99.90;;;11.48;79.59;101678.38;4978208;28;20076;-75
2021/06/13 05:26:00;;;;;;;12.60;2.13;;;12.80;99.90;;;11.54;80.57;101690.50;5011395;28;20054;-76
2021/06/13 05:28:27;;;;;;;9.75;2.00;;;12.80;99.90;;;11.52;79.75;101697.59;5001816;28;20155;-76
2021/06/13 05:30:56;;;;;;;10.43;1.90;;;12.80;99.90;;;11.49;80.44;101706.50;5011412;28;20067;-76
2021/06/13 05:33:24;;;;;;;11.13;1.30;;;12.70;99.90;;;11.49;80.05;101695.94;4996706;28;20507;-75
2021/06/13 05:35:51;;;;;;;10.70;2.00;;;12.80;99.90;;;11.51;79.66;101709.91;5007147;28;20126;-76
2021/06/13 05:38:21;;;;;;;8.80;1.58;;;12.80;99.90;;;11.56;79.64;101700.06;5016546;28;20071;-76
2021/06/13 05:40:49;;;;;;;14.93;1.65;;;12.80;99.90;;;11.58;78.67;101700.88;5036426;28;20119;-75
2021/06/13 05:43:16;;;;;;;14.70;2.92;;;12.80;99.90;;;11.60;78.26;101703.47;5012242;28;20530;-76
2021/06/13 05:45:43;;;;;;;5.53;1.40;;;12.90;99.90;;;11.63;78.30;101709.47;4984413;28;20099;-75
2021/06/13 05:48:09;;;;;;;14.27;1.65;;;12.90;99.90;;;11.62;78.66;101706.88;5002123;28;20060;-75
2021/06/13 05:50:38;;;;;;;12.68;2.08;;;12.90;99.90;;;11.63;79.14;101713.91;4995775;28;20077;-75
2021/06/13 05:53:06;;;;;;;14.05;1.60;;;12.80;99.90;;;11.62;78.44;101707.78;4997796;28;20492;-76
2021/06/13 05:55:32;;;;;;;16.63;2.25;;;12.90;99.90;;;11.65;78.42;101699.75;5003910;28;20065;-76
2021/06/13 05:57:58;;;;;;;7.78;1.63;;;12.90;99.90;;;11.66;78.51;101709.41;4991008;28;20128;-76
2021/06/13 06:00:32;;;;;;;13.50;1.88;;;13.00;99.90;;;11.77;78.63;101713.41;4991186;28;20084;-75
2021/06/13 06:02:57;;;;;;;12.85;1.50;;;13.10;99.90;;;11.86;77.28;101711.31;4988958;28;20393;-75
2021/06/13 06:05:24;;;;;;;5.43;1.88;;;13.20;99.90;;;11.92;77.10;101731.34;5018290;28;20124;-76
2021/06/13 06:07:52;;;;;;;11.35;1.67;;;13.10;99.90;;;11.87;77.32;101730.63;4994623;28;20073;-75
2021/06/13 06:10:22;;;;;;;17.13;1.90;;;13.20;99.90;;;11.91;77.50;101729.66;5048315;28;20140;-76
2021/06/13 06:12:48;;;;;;;10.90;2.03;;;13.20;99.90;;;11.97;78.42;101742.63;5009175;28;20062;-76
2021/06/13 06:15:18;;;;;;;13.65;1.85;;;13.30;99.90;;;12.08;77.79;101739.59;4980983;28;20058;-76
2021/06/13 06:17:45;;;;;;;7.53;1.63;;;13.30;99.90;;;12.10;77.85;101735.13;4990598;28;20071;-76
2021/06/13 06:20:17;;;;;;;12.63;2.03;;;13.40;99.90;;;12.11;78.45;101732.41;4958338;28;20075;-76
2021/06/13 06:22:43;;;;;;;9.77;1.58;;;13.30;99.90;;;12.05;77.90;101742.31;5002801;28;20087;-76
2021/06/13 06:25:11;;;;;;;10.43;1.95;;;13.30;99.90;;;12.05;78.74;101750.25;4972831;28;20161;-76
2021/06/13 06:27:39;;;;;;;10.68;1.75;;;13.20;99.90;;;11.96;77.30;101738.25;5015093;28;20073;-75
2021/06/13 06:30:10;;;;;;;10.32;2.47;;;13.20;99.90;;;11.87;79.29;101768.44;4991740;28;20079;-75
2021/06/13 06:32:36;;;;;;;13.85;1.67;;;13.10;99.90;;;11.85;78.05;101762.34;4992623;28;20070;-75
2021/06/13 06:35:05;;;;;;;19.75;2.78;;;13.10;99.90;;;11.84;78.93;101765.91;5001864;28;20199;-76
2021/06/13 06:37:31;;;;;;;11.40;1.98;;;13.10;99.90;;;11.88;79.71;101764.06;5007279;28;20066;-76
2021/06/13 06:39:59;;;;;;;14.27;2.78;;;13.20;99.90;;;11.92;79.65;101760.38;5022313;28;20204;-76
2021/06/13 06:42:25;;;;;;;10.75;1.65;;;13.20;99.90;;;11.98;78.62;101761.97;4991012;28;20453;-76
2021/06/13 06:44:52;;;;;;;12.15;1.90;;;13.30;99.90;;;12.02;78.05;101756.50;4970017;28;20067;-76
2021/06/13 06:47:19;;;;;;;11.63;1.60;;;13.30;99.90;;;12.14;78.42;101763.13;5010654;28;20069;-75
2021/06/13 06:49:44;;;;;;;13.75;2.08;;;13.50;99.90;;;12.27;78.05;101760.91;5024140;28;20063;-76
2021/06/13 06:52:12;;;;;;;9.25;1.80;;;13.60;99.90;;;12.31;75.32;101766.00;4963713;28;20105;-76
2021/06/13 06:54:40;;;;;;;11.90;2.45;;;13.60;99.90;;;12.39;76.80;101773.63;4985778;28;20063;-75
2021/06/13 06:57:07;;;;;;;13.25;2.05;;;13.70;99.90;;;12.54;76.58;101774.84;5018969;28;20070;-76
2021/06/13 06:59:33;;;;;;;8.38;1.60;;;13.70;99.90;;;12.39;75.11;101771.00;5015099;28;20715;-76
2021/06/13 07:01:59;;;;;;;11.52;2.05;;;13.60;99.90;;;12.40;76.02;101780.66;4993930;28;20065;-76
2021/06/13 07:04:24;;;;;;;9.52;2.00;;;13.60;99.90;;;12.41;76.40;101792.94;4968308;28;20129;-76
2021/06/13 07:06:50;;;;;;;15.90;2.00;;;13.60;99.90;;;12.28;75.72;101799.59;5006948;28;20420;-76
2021/06/13 07:09:18;;;;;;;8.18;2.08;;;13.50;99.90;;;12.27;75.82;101797.88;4981592;28;20519;-76
2021/06/13 07:11:45;;;;;;;15.00;2.38;;;13.50;99.90;;;12.23;75.79;101809.47;5022285;28;20092;-75
2021/06/13 07:14:11;;;;;;;11.38;1.63;;;13.50;99.90;;;12.30;76.73;101814.44;5004244;28;20068;-76
2021/06/13 07:16:37;;;;;;;13.13;2.58;;;13.50;99.90;;;12.32;75.71;101815.25;5014149;28;20063;-75
2021/06/13 07:19:03;;;;;;;11.52;1.65;;;13.60;99.90;;;12.45;75.67;101826.22;4988840;28;20125;-76
2021/06/13 07:21:29;;;;;;;7.15;1.70;;;13.80;99.90;;;12.66;75.13;101823.72;5012682;28;20058;-76
2021/06/13 07:23:57;;;;;;;12.23;1.60;;;13.90;99.90;;;12.69;73.19;101828.88;5007023;28;20108;-75
2021/06/13 07:26:22;;;;;;;13.82;2.33;;;14.00;99.90;;;12.79;74.28;101830.25;5006136;28;20149;-75
2021/06/13 07:28:49;;;;;;;6.28;1.60;;;14.10;99.90;;;12.91;73.06;101832.44;5004696;28;20070;-75
2021/06/13 07:31:15;;;;;;;6.07;1.58;;;14.10;99.90;;;12.85;73.66;101839.72;4997514;28;20070;-75
2021/06/13 07:33:41;;;;;;;8.30;1.98;;;14.20;99.90;;;13.02;72.63;101841.72;4996483;28;20209;-76
2021/06/13 07:36:08;;;;;;;10.40;1.95;;;14.30;99.90;;;13.02;72.22;101847.00;5012642;28;20073;-75
2021/06/13 07:38:34;;;;;;;9.05;1.63;;;14.20;99.90;;;13.04;72.64;101845.16;5004711;28;20059;-75
2021/06/13 07:41:00;;;;;;;7.95;1.40;;;14.30;99.90;;;13.02;72.34;101844.34;5013212;28;20576;-74
2021/06/13 07:43:26;;;;;;;7.72;2.10;;;14.20;99.90;;;12.98;73.12;101855.97;5015797;28;20081;-76
2021/06/13 07:45:52;;;;;;;8.88;1.95;;;14.30;99.90;;;13.12;72.76;101848.38;5018350;28;20172;-74
2021/06/13 07:48:19;;;;;;;8.70;1.90;;;14.30;99.90;;;13.07;72.95;101850.34;5014714;28;20057;-76
2021/06/13 07:50:45;;;;;;;11.70;2.25;;;14.20;99.90;;;12.94;72.44;101855.25;5013367;28;20055;-76
2021/06/13 07:53:12;;;;;;;9.93;2.03;;;14.30;99.90;;;13.14;73.44;101849.19;4988135;28;20080;-76
2021/06/13 07:55:40;;;;;;;10.15;1.88;;;14.40;99.90;;;13.15;71.69;101845.59;4998795;28;20071;-75
2021/06/13 07:58:11;;;;;;;9.18;2.30;;;14.60;99.90;;;13.48;73.10;101837.28;4987605;28;20092;-76
2021/06/13 08:00:38;;;;;;;10.57;1.85;;;14.80;99.90;;;13.69;71.58;101843.44;5000431;28;20132;-76
2021/06/13 08:03:05;;;;;;;14.55;2.22;;;14.90;99.90;;;13.68;70.67;101849.69;4997929;28;20071;-76
2021/06/13 08:05:35;;;;;;;11.52;2.10;;;14.80;99.90;;;13.53;70.12;101848.53;5013848;28;20115;-76
2021/06/13 08:08:06;;;;;;;7.32;1.50;;;14.80;99.90;;;13.58;70.26;101846.53;4991525;28;20094;-75
2021/06/13 08:10:34;;;;;;;11.32;2.83;;;14.90;99.90;;;13.61;70.49;101853.50;4976122;28;20067;-75
2021/06/13 08:13:03;;;;;;;12.30;2.00;;;15.00;99.90;;;14.00;70.92;101858.06;4990665;28;20598;-76
2021/06/13 08:15:30;;;;;;;9.82;2.15;;;15.60;99.90;;;15.00;67.36;101848.28;4987693;28;20525;-76
2021/06/13 08:17:57;;;;;;;7.03;2.08;;;16.30;99.90;;;15.05;65.57;101857.72;5012932;28;20153;-76
2021/06/13 08:20:24;;;;;;;9.35;2.17;;;16.00;99.90;;;14.53;66.49;101858.31;5000332;28;20124;-75
2021/06/13 08:22:50;;;;;;;11.15;2.22;;;15.60;99.90;;;14.20;69.07;101865.13;4981404;28;20109;-76
2021/06/13 08:25:17;;;;;;;8.65;2.17;;;15.50;99.90;;;14.23;68.62;101865.84;4976881;28;20481;-75
2021/06/13 08:27:45;;;;;;;8.70;2.55;;;15.30;99.90;;;14.10;69.35;101870.84;4959684;28;20077;-76
2021/06/13 08:30:14;;;;;;;12.68;2.08;;;15.40;99.90;;;14.28;69.90;101865.66;4974897;28;20152;-76
2021/06/13 08:32:41;;;;;;;14.68;2.38;;;15.60;99.90;;;14.37;68.90;101870.53;4975233;28;20088;-76
2021/06/13 08:35:08;;;;;;;7.03;2.30;;;15.40;99.90;;;14.04;69.53;101872.84;4954127;28;20566;-76
2021/06/13 08:37:35;;;;;;;7.95;2.03;;;15.10;99.90;;;13.76;70.55;101889.94;5003372;28;20082;-76
2021/06/13 08:40:02;;;;;;;13.80;2.13;;;15.00;99.90;;;13.71;70.69;101882.19;4995351;28;20065;-75
2021/06/13 08:42:28;;;;;;;13.27;2.22;;;14.90;99.90;;;13.71;69.42;101873.34;4985984;28;20069;-76
2021/06/13 08:44:54;;;;;;;17.40;2.28;;;14.90;99.90;;;13.72;69.27;101883.03;4975305;28;20089;-75
2021/06/13 08:47:22;;;;;;;16.55;2.42;;;15.10;99.90;;;14.09;70.30;101889.44;4976764;28;20061;-76
2021/06/13 08:49:50;;;;;;;10.05;2.33;;;15.30;99.90;;;14.21;68.47;101890.69;4976000;28;20156;-75
2021/06/13 08:52:17;;;;;;;10.50;2.42;;;15.60;99.90;;;14.41;68.02;101895.13;5002153;28;20066;-76
2021/06/13 08:54:43;;;;;;;8.68;2.13;;;16.10;99.90;;;15.27;65.47;101880.56;4974452;28;20060;-76
2021/06/13 08:57:10;;;;;;;6.53;2.15;;;17.10;99.90;;;16.02;61.56;101884.84;4975110;28;20074;-75
2021/06/13 08:59:37;;;;;;;12.32;2.05;;;16.60;99.90;;;15.08;63.45;101893.88;4999702;28;20104;-75
2021/06/13 09:02:27;;;;;;;11.38;2.28;;;16.10;99.90;;;14.74;64.60;101904.22;4958258;28;20078;-75
2021/06/13 09:05:22;;;;;;;7.97;2.17;;;15.90;99.90;;;14.66;66.30;101909.00;4965602;28;20080;-75
2021/06/13 09:08:22;;;;;;;12.15;3.13;;;16.60;99.90;;;16.12;61.43;101894.09;4971435;28;20113;-76
2021/06/13 09:11:14;;;;;;;15.98;2.30;;;17.10;99.90;;;15.81;60.86;101905.41;4948916;28;20065;-76
2021/06/13 09:14:21;;;;;;;10.00;2.03;;;16.50;99.90;;;15.13;62.56;101911.28;4964222;28;20072;-76
2021/06/13 09:17:18;;;;;;;10.32;2.30;;;16.80;99.90;;;15.94;61.17;101908.31;4970966;28;20542;-75
2021/06/13 09:20:27;;;;;;;8.75;2.42;;;17.10;99.90;;;16.38;58.39;101902.50;4974355;28;20099;-76
2021/06/13 09:24:02;;;;;;;15.23;2.13;;;18.00;99.90;;;17.12;58.34;101898.56;4974917;28;20066;-76
2021/06/13 09:27:29;;;;;;;8.73;2.10;;;17.20;99.90;;;15.18;61.30;101919.91;4968648;28;20071;-75
2021/06/13 09:30:50;;;;;;;9.55;2.55;;;16.40;99.90;;;15.08;62.96;101931.03;4973546;28;20067;-76
2021/06/13 09:34:19;;;;;;;10.07;2.60;;;16.10;99.90;;;15.08;64.19;101931.03;4995172;28;20141;-75
2021/06/13 09:38:06;;;;;;;8.13;2.38;;;16.30;99.90;;;15.25;61.89;101932.84;4964894;28;20083;-75
2021/06/13 09:41:09;;;;;;;;;;;16.30;99.90;;;15.18;60.91;101950.84;4964854;28;20172;-75
2021/06/13 09:44:26;;;;;;;8.02;2.17;;;16.40;99.90;;;15.32;62.86;101959.03;4967026;28;19958;-76
2021/06/13 09:47:40;;;;;;;7.97;2.10;;;16.30;99.90;;;15.50;63.02;101956.44;4956194;28;20097;-76
2021/06/13 09:51:18;;;;;;;11.27;2.20;;;17.50;99.90;;;15.96;60.26;101962.19;4968220;28;20062;-77
2021/06/13 09:53:58;;;;;;;11.25;2.75;;;16.20;99.90;;;14.60;66.20;101980.00;4959711;28;20132;-76
2021/06/13 09:57:15;;;;;;;14.60;3.50;;;15.60;99.90;;;14.30;66.91;101980.38;4958635;28;20061;-76
2021/06/13 10:00:40;;;;;;;15.20;3.17;;;15.50;99.90;;;14.28;66.63;101979.56;4972180;28;20075;-76
2021/06/13 10:03:47;;;;;;;9.15;2.50;;;15.50;99.90;;;14.48;67.20;101986.66;4972974;28;20074;-75
2021/06/13 10:06:35;;;;;;;9.75;3.38;;;15.70;99.90;;;14.48;66.59;101990.19;4970581;28;20083;-76
2021/06/13 10:09:41;;;;;;;14.95;3.30;;;15.80;99.90;;;14.80;65.16;101980.00;4957493;28;20096;-75
2021/06/13 10:12:25;;;;;;;11.30;2.75;;;16.70;99.90;;;16.09;59.79;101984.59;4979025;28;20063;-76
2021/06/13 10:15:43;;;;;;;16.45;3.15;;;17.80;99.90;;;17.36;58.05;101985.03;4939915;28;20071;-76
2021/06/13 10:18:43;;;;;;;10.35;3.65;;;17.40;99.90;;;15.66;63.95;101986.66;4972296;28;20139;-76
2021/06/13 10:21:42;;;;;;;15.85;3.42;;;16.70;99.90;;;15.06;62.08;101997.38;4962514;28;20139;-76
2021/06/13 10:24:44;;;;;;;9.20;3.80;;;16.00;99.90;;;14.81;64.60;101996.75;4980183;28;20082;-76
2021/06/13 10:27:42;;;;;;;12.68;4.32;;;16.20;99.90;;;15.21;64.48;101987.03;4977003;28;20105;-76
2021/06/13 10:30:09;;;;;;;8.98;3.63;;;16.60;99.90;;;15.54;64.47;101985.44;4986174;28;20066;-76
2021/06/13 10:32:35;;;;;;;12.77;4.72;;;16.40;99.90;;;15.09;64.97;102001.69;5011840;28;20536;-76
2021/06/13 10:35:06;;;;;;;11.25;4.07;;;16.30;99.90;;;14.91;64.94;101995.44;4969986;28;20139;-76